createdAt,value
2022-12-03T00:02:49.840Z,101239.09
2022-12-03T00:07:52.769Z,101230.59
2022-12-03T00:12:56.948Z,101236.75
2022-12-03T00:17:59.708Z,101233.75
2022-12-03T00:23:03.108Z,101234.25
2022-12-03T00:28:07.617Z,101236.88
2022-12-03T00:33:10.409Z,101234.94
2022-12-03T00:38:13.180Z,101231.91
2022-12-03T00:43:17.374Z,101224.63
2022-12-03T00:48:20.188Z,101228.28
2022-12-03T00:53:23.000Z,101230.44
2022-12-03T00:58:27.100Z,101224.53
2022-12-03T01:03:30.012Z,101215.78
2022-12-03T01:08:32.815Z,101229.31
2022-12-03T01:13:36.952Z,101226.38
2022-12-03T01:18:39.699Z,101232.66
2022-12-03T01:23:42.453Z,101235.22
2022-12-03T01:28:46.559Z,101239.13
2022-12-03T01:33:49.371Z,101237.19
2022-12-03T01:38:52.163Z,101236.31
2022-12-03T01:43:57.939Z,101235.47
2022-12-03T01:49:00.715Z,101236.56
2022-12-03T01:54:05.929Z,101244.16
2022-12-03T01:59:10.572Z,101249.53
2022-12-03T02:04:15.500Z,101249.34
2022-12-03T02:09:18.339Z,101237.88
2022-12-03T02:14:23.073Z,101245.03
2022-12-03T02:19:29.734Z,101245.94
2022-12-03T02:24:40.934Z,101238.72
2022-12-03T02:29:45.396Z,101240.50
2022-12-03T02:34:48.163Z,101238.56
2022-12-03T02:39:55.226Z,101235.72
2022-12-03T02:45:05.112Z,101236.84
2022-12-03T02:50:10.639Z,101233.50
2022-12-03T02:55:15.652Z,101235.47
2022-12-03T03:00:22.969Z,101240.22
2022-12-03T03:05:26.284Z,101235.78
2022-12-03T03:10:30.591Z,101238.56
2022-12-03T03:15:36.768Z,101232.38
2022-12-03T03:20:40.818Z,101234.22
2022-12-03T03:25:45.915Z,101229.19
2022-12-03T03:30:50.046Z,101231.59
2022-12-03T03:35:53.331Z,101235.00
2022-12-03T03:40:57.382Z,101224.00
2022-12-03T03:46:04.823Z,101224.41
2022-12-03T03:51:09.793Z,101223.22
2022-12-03T03:56:13.074Z,101217.69
2022-12-03T04:01:19.207Z,101210.66
2022-12-03T04:06:22.289Z,101213.28
2022-12-03T04:11:41.628Z,101212.25
2022-12-03T04:16:45.745Z,101217.47
2022-12-03T04:22:05.933Z,101219.16
2022-12-03T04:27:27.417Z,101208.38
2022-12-03T04:32:48.990Z,101212.16
2022-12-03T04:37:51.734Z,101201.94
2022-12-03T04:42:54.497Z,101202.63
2022-12-03T04:47:58.652Z,101199.22
2022-12-03T04:53:01.433Z,101201.00
2022-12-03T04:58:04.199Z,101200.53
2022-12-03T05:03:08.305Z,101199.81
2022-12-03T05:08:11.138Z,101205.09
2022-12-03T05:13:14.070Z,101196.25
2022-12-03T05:18:18.542Z,101198.72
2022-12-03T05:23:21.378Z,101196.06
2022-12-03T05:28:24.300Z,101195.50
2022-12-03T05:33:28.404Z,101198.03
2022-12-03T05:38:31.226Z,101191.81
2022-12-03T05:43:33.965Z,101186.78
2022-12-03T05:48:38.055Z,101193.94
2022-12-03T05:53:40.807Z,101193.00
2022-12-03T05:58:43.591Z,101194.63
2022-12-03T06:03:47.801Z,101203.41
2022-12-03T06:08:50.762Z,101194.63
2022-12-03T06:13:53.527Z,101192.31
2022-12-03T06:18:57.902Z,101194.38
2022-12-03T06:24:01.311Z,101187.41
2022-12-03T06:29:04.162Z,101193.16
2022-12-03T06:34:08.248Z,101193.06
2022-12-03T06:39:11.920Z,101187.81
2022-12-03T06:44:14.702Z,101183.28
2022-12-03T06:49:18.879Z,101192.28
2022-12-03T06:54:21.634Z,101195.78
2022-12-03T06:59:24.368Z,101194.19
2022-12-03T07:04:28.520Z,101190.59
2022-12-03T07:09:31.273Z,101178.09
2022-12-03T07:14:34.127Z,101178.69
2022-12-03T07:19:38.261Z,101170.25
2022-12-03T07:24:41.017Z,101175.38
2022-12-03T07:29:43.780Z,101174.53
2022-12-03T07:34:47.887Z,101168.38
2022-12-03T07:39:52.330Z,101175.41
2022-12-03T07:44:55.289Z,101172.69
2022-12-03T07:49:59.656Z,101172.81
2022-12-03T07:55:02.706Z,101175.63
2022-12-03T08:00:07.041Z,101172.06
2022-12-03T08:05:12.800Z,101165.66
2022-12-03T08:10:15.592Z,101170.69
2022-12-03T08:15:21.107Z,101163.03
2022-12-03T08:20:27.499Z,101165.97
2022-12-03T08:25:33.324Z,101173.97
2022-12-03T08:30:36.071Z,101170.06
2022-12-03T08:35:42.819Z,101166.34
2022-12-03T08:40:49.106Z,101161.72
2022-12-03T08:45:53.624Z,101168.63
2022-12-03T08:50:59.819Z,101169.44
2022-12-03T08:56:05.056Z,101171.22
2022-12-03T09:01:31.973Z,101163.78
2022-12-03T09:06:36.143Z,101165.41
2022-12-03T09:11:39.158Z,101155.28
2022-12-03T09:16:42.544Z,101163.34
2022-12-03T09:21:46.671Z,101160.09
2022-12-03T09:26:49.636Z,101154.50
2022-12-03T09:31:52.577Z,101151.63
2022-12-03T09:36:56.775Z,101147.56
2022-12-03T09:41:59.676Z,101152.63
2022-12-03T09:47:03.620Z,101148.69
2022-12-03T09:52:09.122Z,101151.22
2022-12-03T09:57:13.489Z,101149.19
2022-12-03T10:02:22.309Z,101145.88
2022-12-03T10:07:27.262Z,101140.09
2022-12-03T10:12:30.240Z,101131.44
2022-12-03T10:17:33.339Z,101124.59
2022-12-03T10:22:37.707Z,101111.25
2022-12-03T10:27:41.363Z,101115.38
2022-12-03T10:32:46.655Z,101104.84
2022-12-03T10:38:03.152Z,101102.50
2022-12-03T10:43:25.716Z,101093.31
2022-12-03T10:48:28.597Z,101099.03
2022-12-03T10:53:36.419Z,101088.66
2022-12-03T10:58:40.761Z,101092.13
2022-12-03T11:03:43.599Z,101088.28
2022-12-03T11:08:56.229Z,101065.34
2022-12-03T11:14:01.480Z,101069.16
2022-12-03T11:19:04.767Z,101060.72
2022-12-03T11:24:20.485Z,101062.31
2022-12-03T11:29:48.877Z,101058.00
2022-12-03T11:34:51.805Z,101055.28
2022-12-03T11:40:39.102Z,101055.38
2022-12-03T11:45:42.488Z,101043.09
2022-12-03T11:50:50.609Z,101037.97
2022-12-03T11:56:08.813Z,101028.84
2022-12-03T12:01:12.116Z,101027.66
2022-12-03T12:06:16.639Z,101023.56
2022-12-03T12:11:26.225Z,101018.59
2022-12-03T12:16:45.757Z,101013.16
2022-12-03T12:21:49.929Z,101002.09
2022-12-03T12:26:54.168Z,101008.78
2022-12-03T12:32:04.477Z,101002.63
2022-12-03T12:37:12.676Z,100996.91
2022-12-03T12:42:33.236Z,101001.00
2022-12-03T12:47:37.266Z,100997.56
2022-12-03T12:52:52.231Z,100998.06
2022-12-03T12:58:01.004Z,101001.41
2022-12-03T13:03:05.855Z,100999.50
2022-12-03T13:08:22.103Z,100990.53
2022-12-03T13:13:31.253Z,100984.44
2022-12-03T13:18:39.977Z,100985.13
2022-12-03T13:23:42.798Z,100977.16
2022-12-03T13:28:46.927Z,100966.63
2022-12-03T13:33:49.789Z,100971.78
2022-12-03T13:38:54.288Z,100965.59
2022-12-03T13:43:58.604Z,100965.69
2022-12-03T13:49:02.212Z,100959.00
2022-12-03T13:54:14.514Z,100965.63
2022-12-03T13:59:25.820Z,100956.34
2022-12-03T14:04:29.036Z,100951.63
2022-12-03T14:09:32.088Z,100955.09
2022-12-03T14:14:36.282Z,100951.69
2022-12-03T14:19:39.156Z,100942.84
2022-12-03T14:24:42.056Z,100944.06
2022-12-03T14:29:46.264Z,100937.91
2022-12-03T14:34:49.053Z,100938.88
2022-12-03T14:39:52.396Z,100939.97
2022-12-03T14:44:56.840Z,100946.22
2022-12-03T14:49:59.671Z,100947.91
2022-12-03T14:55:02.479Z,100955.13
2022-12-03T15:00:08.070Z,100949.06
2022-12-03T15:05:11.094Z,100938.31
2022-12-03T15:10:13.879Z,100940.28
2022-12-03T15:15:18.024Z,100952.84
2022-12-03T15:20:20.809Z,100951.13
2022-12-03T15:25:25.465Z,100945.31
2022-12-03T15:30:30.795Z,100945.91
2022-12-03T15:35:33.701Z,100944.38
2022-12-03T15:40:38.092Z,100939.75
2022-12-03T15:45:42.332Z,100945.72
2022-12-03T15:50:45.226Z,100932.72
2022-12-03T15:55:47.971Z,100936.16
2022-12-03T16:00:52.152Z,100939.06
2022-12-03T16:05:54.896Z,100934.44
2022-12-03T16:10:57.694Z,100939.75
2022-12-03T16:16:01.848Z,100931.78
2022-12-03T16:21:04.712Z,100936.44
2022-12-03T16:26:07.482Z,100932.28
2022-12-03T16:31:11.754Z,100921.88
2022-12-03T16:36:14.722Z,100925.81
2022-12-03T16:41:17.543Z,100921.63
2022-12-03T16:46:25.776Z,100908.34
2022-12-03T16:51:30.320Z,100920.78
2022-12-03T16:56:33.159Z,100918.19
2022-12-03T17:01:37.398Z,100917.38
2022-12-03T17:06:40.165Z,100921.63
2022-12-03T17:11:43.020Z,100923.97
2022-12-03T17:16:47.225Z,100919.94
2022-12-03T17:21:50.035Z,100918.84
2022-12-03T17:26:53.021Z,100913.78
2022-12-03T17:31:57.249Z,100917.25
2022-12-03T17:37:00.069Z,100917.81
2022-12-03T17:42:02.824Z,100912.53
2022-12-03T17:47:07.219Z,100916.03
2022-12-03T17:52:10.137Z,100905.59
2022-12-03T17:57:13.062Z,100909.88
2022-12-03T18:02:17.387Z,100904.69
2022-12-03T18:07:20.255Z,100913.63
2022-12-03T18:12:23.031Z,100906.31
2022-12-03T18:17:27.300Z,100914.13
2022-12-03T18:22:30.140Z,100901.00
2022-12-03T18:27:33.048Z,100897.53
2022-12-03T18:32:37.172Z,100895.09
2022-12-03T18:37:40.812Z,100896.84
2022-12-03T18:42:43.594Z,100900.22
2022-12-03T18:47:47.940Z,100898.03
2022-12-03T18:52:50.777Z,100896.28
2022-12-03T18:57:53.548Z,100887.28
2022-12-03T19:03:05.190Z,100883.56
2022-12-03T19:08:14.415Z,100878.13
2022-12-03T19:13:17.242Z,100875.69
2022-12-03T19:18:21.563Z,100868.59
2022-12-03T19:23:24.569Z,100883.41
2022-12-03T19:28:28.089Z,100885.38
2022-12-03T19:33:33.091Z,100878.31
2022-12-03T19:38:36.082Z,100887.28
2022-12-03T19:43:39.612Z,100878.13
2022-12-03T19:48:43.906Z,100881.72
2022-12-03T19:53:47.010Z,100882.56
2022-12-03T19:58:49.992Z,100887.88
2022-12-03T20:03:56.872Z,100880.78
2022-12-03T20:09:01.535Z,100879.88
2022-12-03T20:14:07.102Z,100885.16
2022-12-03T20:19:14.086Z,100877.38
2022-12-03T20:24:19.240Z,100877.28
2022-12-03T20:29:22.017Z,100873.88
2022-12-03T20:34:26.122Z,100882.03
2022-12-03T20:39:28.939Z,100879.28
2022-12-03T20:44:31.701Z,100885.47
2022-12-03T20:49:36.311Z,100880.13
2022-12-03T20:54:39.153Z,100871.25
2022-12-03T20:59:41.908Z,100876.63
2022-12-03T21:04:46.023Z,100868.03
2022-12-03T21:09:48.788Z,100873.06
2022-12-03T21:14:51.579Z,100870.41
2022-12-03T21:19:55.891Z,100876.66
2022-12-03T21:24:58.764Z,100863.78
2022-12-03T21:30:01.585Z,100861.69
2022-12-03T21:35:06.325Z,100857.31
2022-12-03T21:40:09.971Z,100859.19
2022-12-03T21:45:12.798Z,100862.59
2022-12-03T21:50:16.974Z,100868.22
2022-12-03T21:55:19.764Z,100864.66
2022-12-03T22:00:23.040Z,100862.13
2022-12-03T22:05:27.170Z,100869.19
2022-12-03T22:10:30.015Z,100864.44
2022-12-03T22:15:32.843Z,100864.44
2022-12-03T22:20:36.984Z,100860.69
2022-12-03T22:25:39.763Z,100856.22
2022-12-03T22:30:42.641Z,100858.00
2022-12-03T22:35:55.657Z,100857.91
2022-12-03T22:40:58.540Z,100850.03
2022-12-03T22:46:01.419Z,100846.41
2022-12-03T22:51:10.921Z,100845.34
2022-12-03T22:56:13.736Z,100834.81
2022-12-03T23:01:23.155Z,100838.25
2022-12-03T23:06:28.153Z,100836.63
2022-12-03T23:11:32.984Z,100828.13
2022-12-03T23:16:35.840Z,100828.78
2022-12-03T23:21:40.050Z,100837.47
2022-12-03T23:26:42.869Z,100826.72
2022-12-03T23:31:45.729Z,100821.28
2022-12-03T23:36:49.974Z,100823.81
2022-12-03T23:41:53.319Z,100812.47
2022-12-03T23:46:56.112Z,100815.47
2022-12-03T23:52:00.693Z,100816.50
2022-12-03T23:57:03.424Z,100819.81
